sensor_id;sensor_type;location;lat;lon;timestamp;temperature;humidity
20041;DHT22;10181;48.072;9.884;2024-02-16T00:00:12;4.00;99.90
20041;DHT22;10181;48.072;9.884;2024-02-16T00:02:39;4.00;99.90
20041;DHT22;10181;48.072;9.884;2024-02-16T00:05:07;4.00;99.90
20041;DHT22;10181;48.072;9.884;2024-02-16T00:07:33;4.00;99.90
20041;DHT22;10181;48.072;9.884;2024-02-16T00:09:59;4.00;99.90
20041;DHT22;10181;48.072;9.884;2024-02-16T00:12:25;4.00;99.90
20041;DHT22;10181;48.072;9.884;2024-02-16T00:14:52;4.00;99.90
20041;DHT22;10181;48.072;9.884;2024-02-16T00:17:17;3.90;99.90
20041;DHT22;10181;48.072;9.884;2024-02-16T00:19:43;3.90;99.90
20041;DHT22;10181;48.072;9.884;2024-02-16T00:22:08;3.90;99.90
20041;DHT22;10181;48.072;9.884;2024-02-16T00:24:35;3.90;99.90
20041;DHT22;10181;48.072;9.884;2024-02-16T00:27:02;3.90;99.90
20041;DHT22;10181;48.072;9.884;2024-02-16T00:29:31;3.90;99.90
20041;DHT22;10181;48.072;9.884;2024-02-16T00:31:57;3.90;99.90
20041;DHT22;10181;48.072;9.884;2024-02-16T00:34:24;3.90;99.90
20041;DHT22;10181;48.072;9.884;2024-02-16T00:36:50;3.90;99.90
20041;DHT22;10181;48.072;9.884;2024-02-16T00:39:16;3.80;99.90
20041;DHT22;10181;48.072;9.884;2024-02-16T00:41:41;3.90;99.90
20041;DHT22;10181;48.072;9.884;2024-02-16T00:44:07;3.90;99.90
20041;DHT22;10181;48.072;9.884;2024-02-16T00:46:35;3.90;99.90
20041;DHT22;10181;48.072;9.884;2024-02-16T00:49:01;4.00;99.90
20041;DHT22;10181;48.072;9.884;2024-02-16T00:51:27;4.00;99.90
20041;DHT22;10181;48.072;9.884;2024-02-16T00:53:52;4.10;99.90
20041;DHT22;10181;48.072;9.884;2024-02-16T00:56:18;4.00;99.90
20041;DHT22;10181;48.072;9.884;2024-02-16T00:58:44;4.00;99.90
20041;DHT22;10181;48.072;9.884;2024-02-16T01:01:10;4.00;99.90
20041;DHT22;10181;48.072;9.884;2024-02-16T01:03:38;4.00;99.90
20041;DHT22;10181;48.072;9.884;2024-02-16T01:06:04;4.00;99.90
20041;DHT22;10181;48.072;9.884;2024-02-16T01:08:31;4.10;99.90
20041;DHT22;10181;48.072;9.884;2024-02-16T01:10:56;4.10;99.90
20041;DHT22;10181;48.072;9.884;2024-02-16T01:13:22;4.10;99.90
20041;DHT22;10181;48.072;9.884;2024-02-16T01:15:48;4.10;99.90
20041;DHT22;10181;48.072;9.884;2024-02-16T01:18:13;4.20;99.90
20041;DHT22;10181;48.072;9.884;2024-02-16T01:20:39;4.20;99.90
20041;DHT22;10181;48.072;9.884;2024-02-16T01:23:04;4.20;99.90
20041;DHT22;10181;48.072;9.884;2024-02-16T01:25:31;4.20;99.90
20041;DHT22;10181;48.072;9.884;2024-02-16T01:27:57;4.20;99.90
20041;DHT22;10181;48.072;9.884;2024-02-16T01:30:23;4.20;99.90
20041;DHT22;10181;48.072;9.884;2024-02-16T01:32:48;4.20;99.90
20041;DHT22;10181;48.072;9.884;2024-02-16T01:35:14;4.20;99.90
20041;DHT22;10181;48.072;9.884;2024-02-16T01:37:40;4.20;99.90
20041;DHT22;10181;48.072;9.884;2024-02-16T01:40:08;4.20;99.90
20041;DHT22;10181;48.072;9.884;2024-02-16T01:42:41;4.30;99.90
20041;DHT22;10181;48.072;9.884;2024-02-16T01:45:08;4.40;99.90
20041;DHT22;10181;48.072;9.884;2024-02-16T01:47:38;4.60;99.90
20041;DHT22;10181;48.072;9.884;2024-02-16T01:50:05;4.70;99.90
20041;DHT22;10181;48.072;9.884;2024-02-16T01:52:31;4.90;99.90
20041;DHT22;10181;48.072;9.884;2024-02-16T01:54:59;5.10;99.90
20041;DHT22;10181;48.072;9.884;2024-02-16T01:57:28;5.20;99.90
20041;DHT22;10181;48.072;9.884;2024-02-16T01:59:54;5.30;99.90
20041;DHT22;10181;48.072;9.884;2024-02-16T02:02:19;5.30;99.90
20041;DHT22;10181;48.072;9.884;2024-02-16T02:04:45;5.30;99.90
20041;DHT22;10181;48.072;9.884;2024-02-16T02:07:12;5.30;99.90
20041;DHT22;10181;48.072;9.884;2024-02-16T02:09:37;5.30;99.90
20041;DHT22;10181;48.072;9.884;2024-02-16T02:12:03;5.20;99.90
20041;DHT22;10181;48.072;9.884;2024-02-16T02:14:29;5.10;99.90
20041;DHT22;10181;48.072;9.884;2024-02-16T02:16:54;4.90;99.90
20041;DHT22;10181;48.072;9.884;2024-02-16T02:19:20;4.80;99.90
20041;DHT22;10181;48.072;9.884;2024-02-16T02:21:46;4.70;99.90
20041;DHT22;10181;48.072;9.884;2024-02-16T02:24:11;4.60;99.90
20041;DHT22;10181;48.072;9.884;2024-02-16T02:26:38;4.50;99.90
20041;DHT22;10181;48.072;9.884;2024-02-16T02:29:04;4.40;99.90
20041;DHT22;10181;48.072;9.884;2024-02-16T02:31:30;4.40;99.90
20041;DHT22;10181;48.072;9.884;2024-02-16T02:33:56;4.40;99.90
20041;DHT22;10181;48.072;9.884;2024-02-16T02:36:21;4.40;99.90
20041;DHT22;10181;48.072;9.884;2024-02-16T02:38:47;4.40;99.90
20041;DHT22;10181;48.072;9.884;2024-02-16T02:41:13;4.50;99.90
20041;DHT22;10181;48.072;9.884;2024-02-16T02:43:41;4.60;99.90
20041;DHT22;10181;48.072;9.884;2024-02-16T02:46:07;4.60;99.90
20041;DHT22;10181;48.072;9.884;2024-02-16T02:48:33;4.60;99.90
20041;DHT22;10181;48.072;9.884;2024-02-16T02:50:58;4.70;99.90
20041;DHT22;10181;48.072;9.884;2024-02-16T02:53:29;4.60;99.90
20041;DHT22;10181;48.072;9.884;2024-02-16T02:55:55;4.60;99.90
20041;DHT22;10181;48.072;9.884;2024-02-16T02:58:20;4.60;99.90
20041;DHT22;10181;48.072;9.884;2024-02-16T03:00:46;4.50;99.90
20041;DHT22;10181;48.072;9.884;2024-02-16T03:03:11;4.50;99.90
20041;DHT22;10181;48.072;9.884;2024-02-16T03:05:41;4.50;99.90
20041;DHT22;10181;48.072;9.884;2024-02-16T03:08:07;4.50;99.90
20041;DHT22;10181;48.072;9.884;2024-02-16T03:10:33;4.50;99.90
20041;DHT22;10181;48.072;9.884;2024-02-16T03:13:01;4.50;99.90
20041;DHT22;10181;48.072;9.884;2024-02-16T03:15:26;4.70;99.90
20041;DHT22;10181;48.072;9.884;2024-02-16T03:17:52;5.10;99.90
20041;DHT22;10181;48.072;9.884;2024-02-16T03:20:18;5.50;99.90
20041;DHT22;10181;48.072;9.884;2024-02-16T03:22:44;5.70;99.90
20041;DHT22;10181;48.072;9.884;2024-02-16T03:25:10;5.90;99.90
20041;DHT22;10181;48.072;9.884;2024-02-16T03:27:35;6.10;99.90
20041;DHT22;10181;48.072;9.884;2024-02-16T03:30:01;6.20;99.90
20041;DHT22;10181;48.072;9.884;2024-02-16T03:32:27;6.30;99.90
20041;DHT22;10181;48.072;9.884;2024-02-16T03:34:53;6.30;99.90
20041;DHT22;10181;48.072;9.884;2024-02-16T03:37:18;6.50;99.90
20041;DHT22;10181;48.072;9.884;2024-02-16T03:39:44;6.70;99.90
20041;DHT22;10181;48.072;9.884;2024-02-16T03:42:09;6.80;99.90
20041;DHT22;10181;48.072;9.884;2024-02-16T03:44:35;7.00;99.90
20041;DHT22;10181;48.072;9.884;2024-02-16T03:47:01;7.20;99.90
20041;DHT22;10181;48.072;9.884;2024-02-16T03:49:26;7.30;99.90
20041;DHT22;10181;48.072;9.884;2024-02-16T03:51:55;7.30;99.90
20041;DHT22;10181;48.072;9.884;2024-02-16T03:54:20;7.20;99.90
20041;DHT22;10181;48.072;9.884;2024-02-16T03:56:46;7.10;99.90
20041;DHT22;10181;48.072;9.884;2024-02-16T03:59:11;7.10;99.90
20041;DHT22;10181;48.072;9.884;2024-02-16T04:01:37;6.90;99.90
20041;DHT22;10181;48.072;9.884;2024-02-16T04:04:03;6.90;99.90
20041;DHT22;10181;48.072;9.884;2024-02-16T04:06:28;6.90;99.90
20041;DHT22;10181;48.072;9.884;2024-02-16T04:08:55;6.80;99.90
20041;DHT22;10181;48.072;9.884;2024-02-16T04:11:21;6.80;99.90
20041;DHT22;10181;48.072;9.884;2024-02-16T04:13:47;6.70;99.90
20041;DHT22;10181;48.072;9.884;2024-02-16T04:16:13;6.80;99.90
20041;DHT22;10181;48.072;9.884;2024-02-16T04:18:38;6.70;99.90
20041;DHT22;10181;48.072;9.884;2024-02-16T04:21:04;6.70;99.90
20041;DHT22;10181;48.072;9.884;2024-02-16T04:23:30;6.70;99.90
20041;DHT22;10181;48.072;9.884;2024-02-16T04:25:55;6.70;99.90
20041;DHT22;10181;48.072;9.884;2024-02-16T04:28:21;6.80;99.90
20041;DHT22;10181;48.072;9.884;2024-02-16T04:30:47;6.80;99.90
20041;DHT22;10181;48.072;9.884;2024-02-16T04:33:13;6.90;99.90
20041;DHT22;10181;48.072;9.884;2024-02-16T04:35:38;7.00;99.90
20041;DHT22;10181;48.072;9.884;2024-02-16T04:38:04;7.10;99.90
20041;DHT22;10181;48.072;9.884;2024-02-16T04:40:36;7.20;99.90
20041;DHT22;10181;48.072;9.884;2024-02-16T04:43:02;7.30;99.90
20041;DHT22;10181;48.072;9.884;2024-02-16T04:45:28;7.30;99.90
20041;DHT22;10181;48.072;9.884;2024-02-16T04:47:55;7.30;99.90
20041;DHT22;10181;48.072;9.884;2024-02-16T04:50:21;7.20;99.90
20041;DHT22;10181;48.072;9.884;2024-02-16T04:52:46;7.20;99.90
20041;DHT22;10181;48.072;9.884;2024-02-16T04:55:12;7.20;99.90
20041;DHT22;10181;48.072;9.884;2024-02-16T04:57:38;7.20;99.90
20041;DHT22;10181;48.072;9.884;2024-02-16T05:00:04;7.20;99.90
20041;DHT22;10181;48.072;9.884;2024-02-16T05:02:30;7.20;99.90
20041;DHT22;10181;48.072;9.884;2024-02-16T05:04:55;7.30;99.90
20041;DHT22;10181;48.072;9.884;2024-02-16T05:07:21;7.40;99.90
20041;DHT22;10181;48.072;9.884;2024-02-16T05:09:47;7.40;99.90
20041;DHT22;10181;48.072;9.884;2024-02-16T05:12:12;7.30;99.90
20041;DHT22;10181;48.072;9.884;2024-02-16T05:14:38;7.30;99.90
20041;DHT22;10181;48.072;9.884;2024-02-16T05:17:03;7.20;99.90
20041;DHT22;10181;48.072;9.884;2024-02-16T05:19:32;7.20;99.90
20041;DHT22;10181;48.072;9.884;2024-02-16T05:21:59;7.10;99.90
20041;DHT22;10181;48.072;9.884;2024-02-16T05:24:25;7.00;99.90
20041;DHT22;10181;48.072;9.884;2024-02-16T05:26:51;7.00;99.90
20041;DHT22;10181;48.072;9.884;2024-02-16T05:29:17;7.10;99.90
20041;DHT22;10181;48.072;9.884;2024-02-16T05:31:42;7.10;99.90
20041;DHT22;10181;48.072;9.884;2024-02-16T05:34:08;7.00;99.90
20041;DHT22;10181;48.072;9.884;2024-02-16T05:36:33;7.00;99.90
20041;DHT22;10181;48.072;9.884;2024-02-16T05:39:01;6.90;99.90
20041;DHT22;10181;48.072;9.884;2024-02-16T05:41:35;6.80;99.90
20041;DHT22;10181;48.072;9.884;2024-02-16T05:44:02;6.60;99.90
20041;DHT22;10181;48.072;9.884;2024-02-16T05:46:28;6.60;99.90
20041;DHT22;10181;48.072;9.884;2024-02-16T05:48:53;6.80;99.90
20041;DHT22;10181;48.072;9.884;2024-02-16T05:51:19;6.80;99.90
20041;DHT22;10181;48.072;9.884;2024-02-16T05:53:45;6.80;99.90
20041;DHT22;10181;48.072;9.884;2024-02-16T05:56:12;6.80;99.90
20041;DHT22;10181;48.072;9.884;2024-02-16T05:58:38;6.80;99.90
20041;DHT22;10181;48.072;9.884;2024-02-16T06:01:03;6.80;99.90
20041;DHT22;10181;48.072;9.884;2024-02-16T06:03:29;6.90;99.90
20041;DHT22;10181;48.072;9.884;2024-02-16T06:05:55;6.90;99.90
20041;DHT22;10181;48.072;9.884;2024-02-16T06:08:20;6.80;99.90
20041;DHT22;10181;48.072;9.884;2024-02-16T06:10:46;6.80;99.90
20041;DHT22;10181;48.072;9.884;2024-02-16T06:13:19;6.80;99.90
20041;DHT22;10181;48.072;9.884;2024-02-16T06:15:46;6.60;99.90
20041;DHT22;10181;48.072;9.884;2024-02-16T06:18:12;6.60;99.90
20041;DHT22;10181;48.072;9.884;2024-02-16T06:20:38;6.60;99.90
20041;DHT22;10181;48.072;9.884;2024-02-16T06:23:04;6.60;99.90
20041;DHT22;10181;48.072;9.884;2024-02-16T06:25:29;6.60;99.90
20041;DHT22;10181;48.072;9.884;2024-02-16T06:27:55;6.70;99.90
20041;DHT22;10181;48.072;9.884;2024-02-16T06:30:21;6.80;99.90
20041;DHT22;10181;48.072;9.884;2024-02-16T06:32:47;6.70;99.90
20041;DHT22;10181;48.072;9.884;2024-02-16T06:35:12;6.60;99.90
20041;DHT22;10181;48.072;9.884;2024-02-16T06:37:38;6.60;99.90
20041;DHT22;10181;48.072;9.884;2024-02-16T06:40:06;6.60;99.90
20041;DHT22;10181;48.072;9.884;2024-02-16T06:42:32;6.60;99.90
20041;DHT22;10181;48.072;9.884;2024-02-16T06:44:59;6.50;99.90
20041;DHT22;10181;48.072;9.884;2024-02-16T06:47:25;6.60;99.90
20041;DHT22;10181;48.072;9.884;2024-02-16T06:49:51;6.60;99.90
20041;DHT22;10181;48.072;9.884;2024-02-16T06:52:16;6.60;99.90
20041;DHT22;10181;48.072;9.884;2024-02-16T06:54:42;6.70;99.90
20041;DHT22;10181;48.072;9.884;2024-02-16T06:57:07;6.80;99.90
20041;DHT22;10181;48.072;9.884;2024-02-16T06:59:33;6.90;99.90
20041;DHT22;10181;48.072;9.884;2024-02-16T07:01:59;7.00;99.90
20041;DHT22;10181;48.072;9.884;2024-02-16T07:04:24;6.90;99.90
20041;DHT22;10181;48.072;9.884;2024-02-16T07:06:50;6.90;99.90
20041;DHT22;10181;48.072;9.884;2024-02-16T07:09:16;6.90;99.90
20041;DHT22;10181;48.072;9.884;2024-02-16T07:11:42;6.90;99.90
20041;DHT22;10181;48.072;9.884;2024-02-16T07:14:08;6.90;99.90
20041;DHT22;10181;48.072;9.884;2024-02-16T07:16:34;7.10;99.90
20041;DHT22;10181;48.072;9.884;2024-02-16T07:18:59;7.20;99.90
20041;DHT22;10181;48.072;9.884;2024-02-16T07:21:25;7.30;99.90
20041;DHT22;10181;48.072;9.884;2024-02-16T07:23:52;7.40;99.90
20041;DHT22;10181;48.072;9.884;2024-02-16T07:26:18;7.40;99.90
20041;DHT22;10181;48.072;9.884;2024-02-16T07:28:44;7.50;99.90
20041;DHT22;10181;48.072;9.884;2024-02-16T07:31:10;7.70;99.90
20041;DHT22;10181;48.072;9.884;2024-02-16T07:33:36;7.90;99.90
20041;DHT22;10181;48.072;9.884;2024-02-16T07:36:02;8.00;99.90
20041;DHT22;10181;48.072;9.884;2024-02-16T07:38:28;8.10;99.90
20041;DHT22;10181;48.072;9.884;2024-02-16T07:40:54;8.20;99.90
20041;DHT22;10181;48.072;9.884;2024-02-16T07:43:20;8.20;99.90
20041;DHT22;10181;48.072;9.884;2024-02-16T07:45:47;8.20;99.90
20041;DHT22;10181;48.072;9.884;2024-02-16T07:48:12;8.10;99.90
20041;DHT22;10181;48.072;9.884;2024-02-16T07:50:38;8.10;99.90
20041;DHT22;10181;48.072;9.884;2024-02-16T07:53:03;8.20;99.90
20041;DHT22;10181;48.072;9.884;2024-02-16T07:55:29;8.20;99.90
20041;DHT22;10181;48.072;9.884;2024-02-16T07:57:55;8.20;99.90
20041;DHT22;10181;48.072;9.884;2024-02-16T08:00:20;8.30;99.90
20041;DHT22;10181;48.072;9.884;2024-02-16T08:02:46;8.30;99.90
20041;DHT22;10181;48.072;9.884;2024-02-16T08:05:12;8.40;99.90
20041;DHT22;10181;48.072;9.884;2024-02-16T08:07:39;8.40;99.90
20041;DHT22;10181;48.072;9.884;2024-02-16T08:10:08;8.50;99.90
20041;DHT22;10181;48.072;9.884;2024-02-16T08:12:34;8.60;99.90
20041;DHT22;10181;48.072;9.884;2024-02-16T08:15:01;8.60;99.90
20041;DHT22;10181;48.072;9.884;2024-02-16T08:17:26;8.70;99.90
20041;DHT22;10181;48.072;9.884;2024-02-16T08:19:53;8.70;99.90
20041;DHT22;10181;48.072;9.884;2024-02-16T08:22:19;8.70;99.90
20041;DHT22;10181;48.072;9.884;2024-02-16T08:24:45;8.70;99.90
20041;DHT22;10181;48.072;9.884;2024-02-16T08:27:11;8.80;99.90
20041;DHT22;10181;48.072;9.884;2024-02-16T08:29:38;8.80;99.90
20041;DHT22;10181;48.072;9.884;2024-02-16T08:32:04;8.90;99.90
20041;DHT22;10181;48.072;9.884;2024-02-16T08:34:31;8.90;99.90
20041;DHT22;10181;48.072;9.884;2024-02-16T08:36:57;9.00;99.90
20041;DHT22;10181;48.072;9.884;2024-02-16T08:39:23;9.20;99.90
20041;DHT22;10181;48.072;9.884;2024-02-16T08:41:51;9.30;99.90
20041;DHT22;10181;48.072;9.884;2024-02-16T08:44:16;9.40;99.90
20041;DHT22;10181;48.072;9.884;2024-02-16T08:46:44;9.50;99.90
20041;DHT22;10181;48.072;9.884;2024-02-16T08:49:11;9.50;99.90
20041;DHT22;10181;48.072;9.884;2024-02-16T08:51:37;9.60;99.90
20041;DHT22;10181;48.072;9.884;2024-02-16T08:54:02;9.60;99.90
20041;DHT22;10181;48.072;9.884;2024-02-16T08:56:30;9.70;99.90
20041;DHT22;10181;48.072;9.884;2024-02-16T08:58:56;9.80;99.90
20041;DHT22;10181;48.072;9.884;2024-02-16T09:01:37;10.00;99.90
20041;DHT22;10181;48.072;9.884;2024-02-16T09:04:04;10.10;99.90
20041;DHT22;10181;48.072;9.884;2024-02-16T09:06:30;10.20;99.90
20041;DHT22;10181;48.072;9.884;2024-02-16T09:08:56;10.40;99.90
20041;DHT22;10181;48.072;9.884;2024-02-16T09:11:22;10.50;99.90
20041;DHT22;10181;48.072;9.884;2024-02-16T09:13:48;10.70;99.90
20041;DHT22;10181;48.072;9.884;2024-02-16T09:16:14;10.80;99.90
20041;DHT22;10181;48.072;9.884;2024-02-16T09:18:39;11.00;99.90
20041;DHT22;10181;48.072;9.884;2024-02-16T09:21:06;11.20;99.90
20041;DHT22;10181;48.072;9.884;2024-02-16T09:23:32;11.30;99.90
20041;DHT22;10181;48.072;9.884;2024-02-16T09:25:58;11.40;99.90
20041;DHT22;10181;48.072;9.884;2024-02-16T09:28:25;11.50;99.90
20041;DHT22;10181;48.072;9.884;2024-02-16T09:30:51;11.50;99.90
20041;DHT22;10181;48.072;9.884;2024-02-16T09:33:17;11.50;99.90
20041;DHT22;10181;48.072;9.884;2024-02-16T09:35:43;11.60;99.90
20041;DHT22;10181;48.072;9.884;2024-02-16T09:38:09;11.70;99.90
20041;DHT22;10181;48.072;9.884;2024-02-16T09:40:38;11.90;99.90
20041;DHT22;10181;48.072;9.884;2024-02-16T09:43:04;11.90;99.90
20041;DHT22;10181;48.072;9.884;2024-02-16T09:45:30;12.00;99.90
20041;DHT22;10181;48.072;9.884;2024-02-16T09:47:58;11.90;99.90
20041;DHT22;10181;48.072;9.884;2024-02-16T09:50:24;12.00;99.90
20041;DHT22;10181;48.072;9.884;2024-02-16T09:52:52;12.00;99.90
20041;DHT22;10181;48.072;9.884;2024-02-16T09:55:19;12.10;99.90
20041;DHT22;10181;48.072;9.884;2024-02-16T09:57:45;12.00;99.90
20041;DHT22;10181;48.072;9.884;2024-02-16T10:00:11;12.10;99.90
20041;DHT22;10181;48.072;9.884;2024-02-16T10:02:44;12.10;99.90
20041;DHT22;10181;48.072;9.884;2024-02-16T10:05:14;12.20;99.90
20041;DHT22;10181;48.072;9.884;2024-02-16T10:07:41;12.30;99.90
20041;DHT22;10181;48.072;9.884;2024-02-16T10:10:19;12.40;99.90
20041;DHT22;10181;48.072;9.884;2024-02-16T10:12:45;12.50;99.90
20041;DHT22;10181;48.072;9.884;2024-02-16T10:15:11;12.50;99.90
20041;DHT22;10181;48.072;9.884;2024-02-16T10:17:37;12.50;99.90
20041;DHT22;10181;48.072;9.884;2024-02-16T10:20:02;12.60;99.90
20041;DHT22;10181;48.072;9.884;2024-02-16T10:22:31;12.50;99.90
20041;DHT22;10181;48.072;9.884;2024-02-16T10:25:10;12.60;99.90
20041;DHT22;10181;48.072;9.884;2024-02-16T10:27:38;12.70;99.90
20041;DHT22;10181;48.072;9.884;2024-02-16T10:30:07;12.70;99.90
20041;DHT22;10181;48.072;9.884;2024-02-16T10:32:37;12.70;99.90
20041;DHT22;10181;48.072;9.884;2024-02-16T10:35:06;12.70;99.90
20041;DHT22;10181;48.072;9.884;2024-02-16T10:37:32;12.70;99.90
20041;DHT22;10181;48.072;9.884;2024-02-16T10:39:59;12.70;99.90
20041;DHT22;10181;48.072;9.884;2024-02-16T10:42:27;12.80;99.90
20041;DHT22;10181;48.072;9.884;2024-02-16T10:44:53;12.90;99.90
20041;DHT22;10181;48.072;9.884;2024-02-16T10:47:19;13.10;99.90
20041;DHT22;10181;48.072;9.884;2024-02-16T10:49:45;13.20;99.90
20041;DHT22;10181;48.072;9.884;2024-02-16T10:52:11;13.20;99.90
20041;DHT22;10181;48.072;9.884;2024-02-16T10:54:39;13.20;99.90
20041;DHT22;10181;48.072;9.884;2024-02-16T10:57:08;13.10;99.90
20041;DHT22;10181;48.072;9.884;2024-02-16T10:59:42;13.00;99.90
20041;DHT22;10181;48.072;9.884;2024-02-16T11:02:11;13.10;99.90
20041;DHT22;10181;48.072;9.884;2024-02-16T11:04:38;13.10;99.90
20041;DHT22;10181;48.072;9.884;2024-02-16T11:07:17;13.20;99.90
20041;DHT22;10181;48.072;9.884;2024-02-16T11:09:44;13.20;99.90
20041;DHT22;10181;48.072;9.884;2024-02-16T11:12:12;13.40;99.90
20041;DHT22;10181;48.072;9.884;2024-02-16T11:14:40;13.40;99.90
20041;DHT22;10181;48.072;9.884;2024-02-16T11:17:14;13.40;99.90
20041;DHT22;10181;48.072;9.884;2024-02-16T11:19:46;13.50;99.90
20041;DHT22;10181;48.072;9.884;2024-02-16T11:22:19;13.50;99.90
20041;DHT22;10181;48.072;9.884;2024-02-16T11:24:49;13.70;99.90
20041;DHT22;10181;48.072;9.884;2024-02-16T11:27:16;13.70;99.90
20041;DHT22;10181;48.072;9.884;2024-02-16T11:29:46;13.80;99.90
20041;DHT22;10181;48.072;9.884;2024-02-16T11:32:12;13.90;99.90
20041;DHT22;10181;48.072;9.884;2024-02-16T11:34:38;13.80;99.90
20041;DHT22;10181;48.072;9.884;2024-02-16T11:37:04;14.00;99.90
20041;DHT22;10181;48.072;9.884;2024-02-16T11:39:33;14.10;99.90
20041;DHT22;10181;48.072;9.884;2024-02-16T11:42:08;14.20;99.90
20041;DHT22;10181;48.072;9.884;2024-02-16T11:44:36;14.30;99.90
20041;DHT22;10181;48.072;9.884;2024-02-16T11:47:03;14.30;99.90
20041;DHT22;10181;48.072;9.884;2024-02-16T11:49:29;14.30;99.90
20041;DHT22;10181;48.072;9.884;2024-02-16T11:52:03;14.10;99.90
20041;DHT22;10181;48.072;9.884;2024-02-16T11:54:29;13.90;99.90
20041;DHT22;10181;48.072;9.884;2024-02-16T11:56:56;14.00;99.90
20041;DHT22;10181;48.072;9.884;2024-02-16T11:59:22;14.00;99.90
20041;DHT22;10181;48.072;9.884;2024-02-16T12:01:51;14.10;99.90
20041;DHT22;10181;48.072;9.884;2024-02-16T12:04:35;14.20;99.90
20041;DHT22;10181;48.072;9.884;2024-02-16T12:07:03;14.30;99.90
20041;DHT22;10181;48.072;9.884;2024-02-16T12:09:29;14.30;99.90
20041;DHT22;10181;48.072;9.884;2024-02-16T12:11:57;14.40;99.90
20041;DHT22;10181;48.072;9.884;2024-02-16T12:14:24;14.60;99.90
20041;DHT22;10181;48.072;9.884;2024-02-16T12:16:56;14.80;99.90
20041;DHT22;10181;48.072;9.884;2024-02-16T12:19:22;15.30;99.90
20041;DHT22;10181;48.072;9.884;2024-02-16T12:21:55;15.50;99.90
20041;DHT22;10181;48.072;9.884;2024-02-16T12:24:23;15.90;99.90
20041;DHT22;10181;48.072;9.884;2024-02-16T12:26:49;15.90;99.90
20041;DHT22;10181;48.072;9.884;2024-02-16T12:29:14;16.00;99.90
20041;DHT22;10181;48.072;9.884;2024-02-16T12:31:42;16.00;99.90
20041;DHT22;10181;48.072;9.884;2024-02-16T12:34:08;16.10;99.90
20041;DHT22;10181;48.072;9.884;2024-02-16T12:36:35;15.40;99.90
20041;DHT22;10181;48.072;9.884;2024-02-16T12:39:01;15.20;99.90
20041;DHT22;10181;48.072;9.884;2024-02-16T12:41:32;15.10;99.90
20041;DHT22;10181;48.072;9.884;2024-02-16T12:43:58;15.10;99.90
20041;DHT22;10181;48.072;9.884;2024-02-16T12:46:23;15.00;99.90
20041;DHT22;10181;48.072;9.884;2024-02-16T12:48:50;15.10;99.90
20041;DHT22;10181;48.072;9.884;2024-02-16T12:51:16;14.80;99.90
20041;DHT22;10181;48.072;9.884;2024-02-16T12:53:42;14.60;99.90
20041;DHT22;10181;48.072;9.884;2024-02-16T12:56:08;14.50;99.90
20041;DHT22;10181;48.072;9.884;2024-02-16T12:58:37;14.20;99.90
20041;DHT22;10181;48.072;9.884;2024-02-16T13:01:03;14.20;99.90
20041;DHT22;10181;48.072;9.884;2024-02-16T13:03:33;14.20;99.90
20041;DHT22;10181;48.072;9.884;2024-02-16T13:05:59;14.00;99.90
20041;DHT22;10181;48.072;9.884;2024-02-16T13:08:24;14.10;99.90
20041;DHT22;10181;48.072;9.884;2024-02-16T13:10:50;14.10;99.90
20041;DHT22;10181;48.072;9.884;2024-02-16T13:13:15;14.20;99.90
20041;DHT22;10181;48.072;9.884;2024-02-16T13:15:41;14.20;99.90
20041;DHT22;10181;48.072;9.884;2024-02-16T13:18:06;14.20;99.90
20041;DHT22;10181;48.072;9.884;2024-02-16T13:20:32;14.20;99.90
20041;DHT22;10181;48.072;9.884;2024-02-16T13:22:59;14.10;99.90
20041;DHT22;10181;48.072;9.884;2024-02-16T13:25:25;14.20;99.90
20041;DHT22;10181;48.072;9.884;2024-02-16T13:27:51;14.20;99.90
20041;DHT22;10181;48.072;9.884;2024-02-16T13:30:16;14.20;99.90
20041;DHT22;10181;48.072;9.884;2024-02-16T13:32:42;14.20;99.90
20041;DHT22;10181;48.072;9.884;2024-02-16T13:35:08;14.20;99.90
20041;DHT22;10181;48.072;9.884;2024-02-16T13:37:33;14.10;99.90
20041;DHT22;10181;48.072;9.884;2024-02-16T13:39:59;14.10;99.90
20041;DHT22;10181;48.072;9.884;2024-02-16T13:42:24;14.00;99.90
20041;DHT22;10181;48.072;9.884;2024-02-16T13:44:52;14.00;99.90
20041;DHT22;10181;48.072;9.884;2024-02-16T13:47:17;14.00;99.90
20041;DHT22;10181;48.072;9.884;2024-02-16T13:49:43;14.00;99.90
20041;DHT22;10181;48.072;9.884;2024-02-16T13:52:09;14.00;99.90
20041;DHT22;10181;48.072;9.884;2024-02-16T13:54:35;14.00;99.90
20041;DHT22;10181;48.072;9.884;2024-02-16T13:57:01;14.10;99.90
20041;DHT22;10181;48.072;9.884;2024-02-16T13:59:26;14.10;99.90
20041;DHT22;10181;48.072;9.884;2024-02-16T14:01:53;14.00;99.90
20041;DHT22;10181;48.072;9.884;2024-02-16T14:04:19;14.00;99.90
20041;DHT22;10181;48.072;9.884;2024-02-16T14:06:45;14.00;99.90
20041;DHT22;10181;48.072;9.884;2024-02-16T14:09:10;14.00;99.90
20041;DHT22;10181;48.072;9.884;2024-02-16T14:11:39;14.00;99.90
20041;DHT22;10181;48.072;9.884;2024-02-16T14:14:07;13.90;99.90
20041;DHT22;10181;48.072;9.884;2024-02-16T14:16:32;13.90;99.90
20041;DHT22;10181;48.072;9.884;2024-02-16T14:18:58;13.90;99.90
20041;DHT22;10181;48.072;9.884;2024-02-16T14:21:24;13.90;99.90
20041;DHT22;10181;48.072;9.884;2024-02-16T14:23:49;14.00;99.90
20041;DHT22;10181;48.072;9.884;2024-02-16T14:26:15;14.00;99.90
20041;DHT22;10181;48.072;9.884;2024-02-16T14:28:40;14.10;99.90
20041;DHT22;10181;48.072;9.884;2024-02-16T14:31:06;14.10;99.90
20041;DHT22;10181;48.072;9.884;2024-02-16T14:33:32;14.10;99.90
20041;DHT22;10181;48.072;9.884;2024-02-16T14:35:58;14.10;99.90
20041;DHT22;10181;48.072;9.884;2024-02-16T14:38:23;14.00;99.90
20041;DHT22;10181;48.072;9.884;2024-02-16T14:40:49;14.10;99.90
20041;DHT22;10181;48.072;9.884;2024-02-16T14:43:14;14.10;99.90
20041;DHT22;10181;48.072;9.884;2024-02-16T14:45:40;14.00;99.90
20041;DHT22;10181;48.072;9.884;2024-02-16T14:48:06;14.00;99.90
20041;DHT22;10181;48.072;9.884;2024-02-16T14:50:31;14.00;99.90
20041;DHT22;10181;48.072;9.884;2024-02-16T14:52:57;14.00;99.90
20041;DHT22;10181;48.072;9.884;2024-02-16T14:55:23;13.90;99.90
20041;DHT22;10181;48.072;9.884;2024-02-16T14:57:48;13.80;99.90
20041;DHT22;10181;48.072;9.884;2024-02-16T15:00:14;13.90;99.90
20041;DHT22;10181;48.072;9.884;2024-02-16T15:02:40;13.80;99.90
20041;DHT22;10181;48.072;9.884;2024-02-16T15:05:09;13.80;99.90
20041;DHT22;10181;48.072;9.884;2024-02-16T15:07:35;13.80;99.90
20041;DHT22;10181;48.072;9.884;2024-02-16T15:10:01;13.90;99.90
20041;DHT22;10181;48.072;9.884;2024-02-16T15:12:27;13.80;99.90
20041;DHT22;10181;48.072;9.884;2024-02-16T15:14:52;13.80;99.90
20041;DHT22;10181;48.072;9.884;2024-02-16T15:17:18;13.70;99.90
20041;DHT22;10181;48.072;9.884;2024-02-16T15:19:45;13.70;99.90
20041;DHT22;10181;48.072;9.884;2024-02-16T15:22:10;13.60;99.90
20041;DHT22;10181;48.072;9.884;2024-02-16T15:24:36;13.60;99.90
20041;DHT22;10181;48.072;9.884;2024-02-16T15:27:02;13.60;99.90
20041;DHT22;10181;48.072;9.884;2024-02-16T15:29:29;13.60;99.90
20041;DHT22;10181;48.072;9.884;2024-02-16T15:31:55;13.60;99.90
20041;DHT22;10181;48.072;9.884;2024-02-16T15:34:21;13.60;99.90